createdAt,value
2016-11-11T00:00:00.289Z,925.01
2016-11-11T00:00:17.026Z,925
2016-11-11T00:00:33.780Z,925.04
2016-11-11T00:00:51.699Z,925.01
2016-11-11T00:01:08.413Z,924.97
2016-11-11T00:01:25.133Z,925
2016-11-11T00:01:41.851Z,925.03
2016-11-11T00:01:58.572Z,925.02
2016-11-11T00:02:15.277Z,924.99
2016-11-11T00:02:32.105Z,925.02
2016-11-11T00:02:48.815Z,925.01
2016-11-11T00:03:05.575Z,925
2016-11-11T00:03:22.295Z,924.99
2016-11-11T00:03:39.008Z,925
2016-11-11T00:03:55.721Z,925.01
2016-11-11T00:04:12.402Z,925
2016-11-11T00:04:29.112Z,925
2016-11-11T00:04:45.858Z,925.01
2016-11-11T00:05:33.739Z,924.97
2016-11-11T00:05:50.446Z,924.97
2016-11-11T00:06:07.142Z,924.94
2016-11-11T00:06:23.864Z,924.97
2016-11-11T00:06:40.554Z,924.98
2016-11-11T00:06:57.286Z,924.99
2016-11-11T00:07:13.999Z,924.96
2016-11-11T00:07:30.689Z,925.01
2016-11-11T00:07:47.405Z,925
2016-11-11T00:08:04.842Z,924.98
2016-11-11T00:08:21.545Z,925.01
2016-11-11T00:08:38.275Z,924.99
2016-11-11T00:08:54.988Z,925.03
2016-11-11T00:09:11.695Z,924.97
2016-11-11T00:09:28.408Z,924.93
2016-11-11T00:09:45.099Z,924.97
2016-11-11T00:10:01.800Z,925.02
2016-11-11T00:10:18.498Z,925.01
2016-11-11T00:10:35.213Z,924.98
2016-11-11T00:10:52.669Z,925
2016-11-11T00:11:09.404Z,925.03
2016-11-11T00:11:26.140Z,925.04
2016-11-11T00:11:42.871Z,925.04
2016-11-11T00:11:59.573Z,925.05
2016-11-11T00:12:16.361Z,925.05
2016-11-11T00:12:33.516Z,925.08
2016-11-11T00:12:50.218Z,925.02
2016-11-11T00:13:06.944Z,925.06
2016-11-11T00:13:23.666Z,925.04
2016-11-11T00:13:40.384Z,925.09
2016-11-11T00:13:57.114Z,925.07
2016-11-11T00:14:13.859Z,925.08
2016-11-11T00:14:30.774Z,925.08
2016-11-11T00:14:48.026Z,925.1
2016-11-11T00:15:04.784Z,925.1
2016-11-11T00:15:21.561Z,925.12
2016-11-11T00:15:38.288Z,925.14
2016-11-11T00:15:55.040Z,925.1
2016-11-11T00:16:11.792Z,925.13
2016-11-11T00:16:28.501Z,925.14
2016-11-11T00:16:45.358Z,925.11
2016-11-11T00:17:02.072Z,925.11
2016-11-11T00:17:18.827Z,925.12
2016-11-11T00:17:36.254Z,925.12
2016-11-11T00:17:52.996Z,925.09
2016-11-11T00:18:09.715Z,925.1
2016-11-11T00:18:26.420Z,925.11
2016-11-11T00:18:43.133Z,925.07
2016-11-11T00:18:59.919Z,925.1
2016-11-11T00:19:16.661Z,925.13
2016-11-11T00:19:33.395Z,925.14
2016-11-11T00:19:50.141Z,925.12
2016-11-11T00:20:07.363Z,925.17
2016-11-11T00:20:24.081Z,925.15
2016-11-11T00:20:40.815Z,925.16
2016-11-11T00:20:57.551Z,925.14
2016-11-11T00:21:14.288Z,925.13
2016-11-11T00:21:31.045Z,925.12
2016-11-11T00:21:47.771Z,925.12
2016-11-11T00:22:04.482Z,925.13
2016-11-11T00:22:21.188Z,925.12
2016-11-11T00:22:37.917Z,925.11
2016-11-11T00:22:54.643Z,925.13
2016-11-11T00:23:11.356Z,925.11
2016-11-11T00:23:28.077Z,925.16
2016-11-11T00:23:44.806Z,925.13
2016-11-11T00:24:01.519Z,925.11
2016-11-11T00:24:18.250Z,925.14
2016-11-11T00:24:34.961Z,925.14
2016-11-11T00:24:51.683Z,925.12
2016-11-11T00:25:08.435Z,925.09
2016-11-11T00:25:25.674Z,925.09
2016-11-11T00:25:42.422Z,925.14
2016-11-11T00:25:59.143Z,925.14
2016-11-11T00:26:15.863Z,925.12
2016-11-11T00:26:32.593Z,925.14
2016-11-11T00:26:49.311Z,925.15
2016-11-11T00:27:06.052Z,925.11
2016-11-11T00:27:22.795Z,925.11
2016-11-11T00:27:40.232Z,925.14
2016-11-11T00:27:56.957Z,925.12
2016-11-11T00:28:13.682Z,925.13
2016-11-11T00:28:30.442Z,925.15
2016-11-11T00:28:47.172Z,925.15
2016-11-11T00:29:04.424Z,925.14
2016-11-11T00:29:21.146Z,925.15
2016-11-11T00:29:37.871Z,925.17
2016-11-11T00:29:54.590Z,925.17
2016-11-11T00:30:11.356Z,925.17
2016-11-11T00:30:28.082Z,925.15
2016-11-11T00:30:44.809Z,925.17
2016-11-11T00:31:01.521Z,925.16
2016-11-11T00:31:18.281Z,925.17
2016-11-11T00:31:34.980Z,925.18
2016-11-11T00:31:51.699Z,925.18
2016-11-11T00:32:08.458Z,925.18
2016-11-11T00:32:25.215Z,925.14
2016-11-11T00:32:42.072Z,925.16
2016-11-11T00:32:58.802Z,925.16
2016-11-11T00:33:15.547Z,925.15
2016-11-11T00:33:32.331Z,925.14
2016-11-11T00:33:49.063Z,925.13
2016-11-11T00:34:05.788Z,925.14
2016-11-11T00:34:22.500Z,925.17
2016-11-11T00:34:39.230Z,925.16
2016-11-11T00:34:55.962Z,925.17
2016-11-11T00:35:12.749Z,925.16
2016-11-11T00:35:29.471Z,925.19
2016-11-11T00:35:46.193Z,925.16
2016-11-11T00:36:02.928Z,925.17
2016-11-11T00:36:19.710Z,925.17
2016-11-11T00:36:36.425Z,925.13
2016-11-11T00:36:53.158Z,925.16
2016-11-11T00:37:09.872Z,925.12
2016-11-11T00:37:26.598Z,925.13
2016-11-11T00:37:43.334Z,925.09
2016-11-11T00:38:00.115Z,925.12
2016-11-11T00:38:16.856Z,925.14
2016-11-11T00:38:33.599Z,925.13
2016-11-11T00:38:50.335Z,925.13
2016-11-11T00:39:07.070Z,925.12
2016-11-11T00:39:24.326Z,925.15
2016-11-11T00:39:41.056Z,925.13
2016-11-11T00:39:57.776Z,925.16
2016-11-11T00:40:15.006Z,925.14
2016-11-11T00:40:31.736Z,925.15
2016-11-11T00:40:48.466Z,925.15
2016-11-11T00:41:05.704Z,925.19
2016-11-11T00:41:22.428Z,925.15
2016-11-11T00:41:39.669Z,925.15
2016-11-11T00:41:56.384Z,925.15
2016-11-11T00:42:13.126Z,925.19
2016-11-11T00:42:29.862Z,925.15
2016-11-11T00:42:46.662Z,925.18
2016-11-11T00:43:03.377Z,925.17
2016-11-11T00:43:20.125Z,925.12
2016-11-11T00:43:36.821Z,925.13
2016-11-11T00:43:53.552Z,925.12
2016-11-11T00:44:10.327Z,925.16
2016-11-11T00:44:27.054Z,925.15
2016-11-11T00:44:43.750Z,925.14
2016-11-11T00:45:00.493Z,925.13
2016-11-11T00:45:32.256Z,925.14
2016-11-11T00:45:49.499Z,925.14
2016-11-11T00:46:06.740Z,925.12
2016-11-11T00:46:23.453Z,925.12
2016-11-11T00:46:40.172Z,925.14
2016-11-11T00:46:57.408Z,925.14
2016-11-11T00:47:14.135Z,925.11
2016-11-11T00:47:30.849Z,925.16
2016-11-11T00:47:47.814Z,925.16
2016-11-11T00:48:04.536Z,925.09
2016-11-11T00:48:21.763Z,925.13
2016-11-11T00:48:38.479Z,925.16
2016-11-11T00:48:55.209Z,925.16
2016-11-11T00:49:11.950Z,925.14
2016-11-11T00:49:28.727Z,925.15
2016-11-11T00:49:45.484Z,925.15
2016-11-11T00:50:02.203Z,925.11
2016-11-11T00:50:18.952Z,925.13
2016-11-11T00:50:35.689Z,925.18
2016-11-11T00:50:52.451Z,925.14
2016-11-11T00:51:09.230Z,925.16
2016-11-11T00:51:25.995Z,925.17
2016-11-11T00:51:42.715Z,925.21
2016-11-11T00:51:59.435Z,925.17
2016-11-11T00:52:16.354Z,925.2
2016-11-11T00:52:33.088Z,925.2
2016-11-11T00:52:49.809Z,925.19
2016-11-11T00:53:06.520Z,925.19
2016-11-11T00:53:23.240Z,925.16
2016-11-11T00:53:40.019Z,925.15
2016-11-11T00:53:56.734Z,925.2
2016-11-11T00:54:13.477Z,925.15
2016-11-11T00:54:30.209Z,925.14
2016-11-11T00:54:46.953Z,925.15
2016-11-11T00:55:03.700Z,925.11
2016-11-11T00:55:21.008Z,925.14
2016-11-11T00:55:37.764Z,925.19
2016-11-11T00:55:54.512Z,925.17
2016-11-11T00:56:11.233Z,925.18
2016-11-11T00:56:28.500Z,925.18
2016-11-11T00:56:45.232Z,925.2
2016-11-11T00:57:01.994Z,925.2
2016-11-11T00:57:18.712Z,925.15
2016-11-11T00:57:35.435Z,925.17
2016-11-11T00:57:52.149Z,925.19
2016-11-11T00:58:08.892Z,925.19
2016-11-11T00:58:25.590Z,925.17
2016-11-11T00:58:42.307Z,925.19
2016-11-11T00:58:59.033Z,925.17
2016-11-11T00:59:15.755Z,925.19
2016-11-11T00:59:32.481Z,925.17
2016-11-11T00:59:49.238Z,925.16
2016-11-11T01:00:05.962Z,925.14
2016-11-11T01:00:22.668Z,925.16
2016-11-11T01:00:53.897Z,925.15
2016-11-11T01:01:11.140Z,925.13
2016-11-11T01:01:27.836Z,925.15
2016-11-11T01:01:44.549Z,925.16
2016-11-11T01:02:01.248Z,925.14
2016-11-11T01:02:17.959Z,925.15
2016-11-11T01:02:34.676Z,925.17
2016-11-11T01:02:51.505Z,925.12
2016-11-11T01:03:08.233Z,925.11
2016-11-11T01:03:24.959Z,925.09
2016-11-11T01:03:41.715Z,925.12
2016-11-11T01:03:58.455Z,925.05
2016-11-11T01:04:15.161Z,925.09
2016-11-11T01:04:31.906Z,925.15
2016-11-11T01:04:48.637Z,925.09
2016-11-11T01:05:05.892Z,925.09
2016-11-11T01:05:22.611Z,925.09
2016-11-11T01:05:39.337Z,925.13
2016-11-11T01:05:56.059Z,925.13
2016-11-11T01:06:12.807Z,925.15
2016-11-11T01:06:29.966Z,925.05
2016-11-11T01:06:46.720Z,925.06
2016-11-11T01:07:03.425Z,925.09
2016-11-11T01:07:20.149Z,925.09
2016-11-11T01:07:36.894Z,925.08
2016-11-11T01:07:53.627Z,925.06
2016-11-11T01:08:10.374Z,925.11
2016-11-11T01:08:27.103Z,925.1
2016-11-11T01:08:43.834Z,925.09
2016-11-11T01:09:00.560Z,925.07
2016-11-11T01:09:17.295Z,925.06
2016-11-11T01:09:34.044Z,925.05
2016-11-11T01:09:50.772Z,925.03
2016-11-11T01:10:07.492Z,925.11
2016-11-11T01:10:24.193Z,925.07
2016-11-11T01:10:40.879Z,925.07
2016-11-11T01:10:57.616Z,925.09
2016-11-11T01:11:14.363Z,925.09
2016-11-11T01:11:31.083Z,925.13
2016-11-11T01:11:47.822Z,925.14
2016-11-11T01:12:04.535Z,925.11
2016-11-11T01:12:21.242Z,925.1
2016-11-11T01:12:37.952Z,925.1
2016-11-11T01:13:09.278Z,925.15
2016-11-11T01:13:25.979Z,925.08
2016-11-11T01:13:43.211Z,925.11
2016-11-11T01:13:59.920Z,925.13
2016-11-11T01:14:16.644Z,925.11
2016-11-11T01:14:33.346Z,925.14
2016-11-11T01:14:50.095Z,925.12
2016-11-11T01:15:06.846Z,925.12
2016-11-11T01:15:23.577Z,925.07
2016-11-11T01:15:40.343Z,925.09
2016-11-11T01:15:57.078Z,925.12
2016-11-11T01:16:14.310Z,925.14
2016-11-11T01:16:31.080Z,925.12
2016-11-11T01:16:47.785Z,925.15
2016-11-11T01:17:04.539Z,925.18
2016-11-11T01:17:21.263Z,925.15
2016-11-11T01:17:37.996Z,925.11
2016-11-11T01:17:54.747Z,925.13
2016-11-11T01:18:11.491Z,925.12
2016-11-11T01:18:28.236Z,925.11
2016-11-11T01:18:44.962Z,925.11
2016-11-11T01:19:01.717Z,925.14
2016-11-11T01:19:18.425Z,925.1
2016-11-11T01:19:35.148Z,925.08
2016-11-11T01:19:51.867Z,925.09
2016-11-11T01:20:08.596Z,925.09
2016-11-11T01:20:25.317Z,925.15
2016-11-11T01:20:42.045Z,925.12
2016-11-11T01:20:58.743Z,925.08
2016-11-11T01:21:15.468Z,925.13
2016-11-11T01:21:32.182Z,925.11
2016-11-11T01:21:48.929Z,925.11
2016-11-11T01:22:05.658Z,925.09
2016-11-11T01:22:22.399Z,925.07
2016-11-11T01:22:39.123Z,925.13
2016-11-11T01:22:55.860Z,925.12
2016-11-11T01:23:12.604Z,925.11
2016-11-11T01:23:29.319Z,925.12
2016-11-11T01:23:46.578Z,925.1
2016-11-11T01:24:03.332Z,925.12
2016-11-11T01:24:20.099Z,925.12
2016-11-11T01:24:36.818Z,925.09
2016-11-11T01:24:53.568Z,925.07
2016-11-11T01:25:10.310Z,925.09
2016-11-11T01:25:28.102Z,925.13
2016-11-11T01:25:44.847Z,925.11
2016-11-11T01:26:01.574Z,925
2016-11-11T01:26:18.286Z,925.04
2016-11-11T01:26:35.012Z,925.04
2016-11-11T01:26:51.769Z,925.03
2016-11-11T01:27:08.497Z,925
2016-11-11T01:27:25.217Z,925.03
2016-11-11T01:27:41.945Z,925.05
2016-11-11T01:27:58.681Z,925
2016-11-11T01:28:15.937Z,925
2016-11-11T01:28:32.677Z,925.02
2016-11-11T01:28:49.424Z,925.01
2016-11-11T01:29:06.158Z,925
2016-11-11T01:29:22.945Z,925.02
2016-11-11T01:29:39.656Z,924.99
2016-11-11T01:29:56.377Z,925
2016-11-11T01:30:13.671Z,924.97
2016-11-11T01:30:30.370Z,924.98
2016-11-11T01:30:47.103Z,924.91
2016-11-11T01:31:03.826Z,924.93
2016-11-11T01:31:20.552Z,924.9
2016-11-11T01:31:37.298Z,924.91
2016-11-11T01:31:54.036Z,924.89
2016-11-11T01:32:10.802Z,924.9
2016-11-11T01:32:27.529Z,924.87
2016-11-11T01:32:44.314Z,924.89
2016-11-11T01:33:01.047Z,924.86
2016-11-11T01:33:17.780Z,924.88
2016-11-11T01:33:34.512Z,924.9
2016-11-11T01:33:51.268Z,924.89
2016-11-11T01:34:07.976Z,924.92
2016-11-11T01:34:24.700Z,924.9
2016-11-11T01:34:41.430Z,924.89
2016-11-11T01:34:58.170Z,924.92
2016-11-11T01:35:14.965Z,924.88
2016-11-11T01:35:31.701Z,924.88
2016-11-11T01:35:48.415Z,924.91
2016-11-11T01:36:05.146Z,924.88
2016-11-11T01:36:21.882Z,924.87
2016-11-11T01:36:38.630Z,924.86
2016-11-11T01:36:55.365Z,924.9
2016-11-11T01:37:12.152Z,924.89
2016-11-11T01:37:28.884Z,924.89
2016-11-11T01:37:45.579Z,924.86
2016-11-11T01:38:02.435Z,924.9
2016-11-11T01:38:19.682Z,924.89
2016-11-11T01:39:07.602Z,924.84
2016-11-11T01:39:24.347Z,924.85
2016-11-11T01:39:41.092Z,924.82
2016-11-11T01:39:57.784Z,924.85
2016-11-11T01:40:14.556Z,924.84
2016-11-11T01:40:31.300Z,924.8
2016-11-11T01:40:48.039Z,924.8
2016-11-11T01:41:04.759Z,924.81
2016-11-11T01:41:21.476Z,924.78
2016-11-11T01:41:38.171Z,924.79
2016-11-11T01:41:54.886Z,924.78
2016-11-11T01:42:11.615Z,924.78
2016-11-11T01:42:28.339Z,924.79
2016-11-11T01:42:45.055Z,924.79
2016-11-11T01:43:01.782Z,924.76
2016-11-11T01:43:18.488Z,924.74
2016-11-11T01:43:35.233Z,924.74
2016-11-11T01:43:52.464Z,924.71
2016-11-11T01:44:09.182Z,924.72
2016-11-11T01:44:25.913Z,924.73
2016-11-11T01:44:42.673Z,924.71
2016-11-11T01:44:59.402Z,924.69
2016-11-11T01:45:16.161Z,924.69
2016-11-11T01:45:32.907Z,924.7
2016-11-11T01:45:49.686Z,924.71
2016-11-11T01:46:06.435Z,924.71
2016-11-11T01:46:23.174Z,924.7
2016-11-11T01:46:39.889Z,924.68
2016-11-11T01:46:56.626Z,924.67
2016-11-11T01:47:44.583Z,924.67
2016-11-11T01:48:01.947Z,924.72
2016-11-11T01:48:18.670Z,924.71
2016-11-11T01:48:35.418Z,924.71
2016-11-11T01:48:52.142Z,924.72
2016-11-11T01:49:08.884Z,924.71
2016-11-11T01:49:25.605Z,924.7
2016-11-11T01:49:42.339Z,924.73
2016-11-11T01:49:59.058Z,924.72
2016-11-11T01:50:15.786Z,924.72
2016-11-11T01:50:33.038Z,924.73
2016-11-11T01:50:49.739Z,924.69
2016-11-11T01:51:06.499Z,924.72
2016-11-11T01:51:23.211Z,924.7
2016-11-11T01:51:40.490Z,924.7
2016-11-11T01:51:57.189Z,924.7
2016-11-11T01:52:13.928Z,924.75
2016-11-11T01:52:30.687Z,924.69
2016-11-11T01:52:47.444Z,924.69
2016-11-11T01:53:04.391Z,924.68
2016-11-11T01:53:21.108Z,924.68
2016-11-11T01:53:38.377Z,924.66
2016-11-11T01:53:55.115Z,924.68
2016-11-11T01:54:11.853Z,924.65
2016-11-11T01:54:28.623Z,924.63
2016-11-11T01:54:45.360Z,924.64
2016-11-11T01:55:02.083Z,924.64
2016-11-11T01:55:18.836Z,924.61
2016-11-11T01:55:35.575Z,924.6
2016-11-11T01:55:52.310Z,924.65
2016-11-11T01:56:09.038Z,924.65
2016-11-11T01:56:25.749Z,924.59
2016-11-11T01:56:42.458Z,924.62
2016-11-11T01:56:59.187Z,924.65
2016-11-11T01:57:16.434Z,924.59
2016-11-11T01:57:33.124Z,924.66
2016-11-11T01:57:49.844Z,924.6
2016-11-11T01:58:07.298Z,924.58
2016-11-11T01:58:24.030Z,924.64
2016-11-11T01:58:40.759Z,924.58
2016-11-11T01:58:57.485Z,924.64
2016-11-11T01:59:14.183Z,924.59
2016-11-11T01:59:30.907Z,924.64
2016-11-11T01:59:47.651Z,924.65
2016-11-11T02:00:04.362Z,924.6
2016-11-11T02:00:21.101Z,924.62
2016-11-11T02:00:37.810Z,924.63
2016-11-11T02:00:54.542Z,924.63
2016-11-11T02:01:11.262Z,924.6
2016-11-11T02:01:27.991Z,924.61
2016-11-11T02:01:44.726Z,924.61
2016-11-11T02:02:01.447Z,924.58
2016-11-11T02:02:18.177Z,924.6
2016-11-11T02:02:34.904Z,924.56
2016-11-11T02:02:51.645Z,924.61
2016-11-11T02:03:08.353Z,924.58
2016-11-11T02:03:25.092Z,924.51
2016-11-11T02:03:42.686Z,924.5
2016-11-11T02:03:59.443Z,924.5
2016-11-11T02:04:16.186Z,924.53
2016-11-11T02:04:33.431Z,924.48
2016-11-11T02:04:50.157Z,924.52
2016-11-11T02:05:06.897Z,924.49
2016-11-11T02:05:24.124Z,924.48
2016-11-11T02:05:40.860Z,924.47
2016-11-11T02:05:57.588Z,924.5
2016-11-11T02:06:14.316Z,924.5
2016-11-11T02:06:31.082Z,924.5
2016-11-11T02:06:47.816Z,924.44
2016-11-11T02:07:05.042Z,924.47
2016-11-11T02:07:21.760Z,924.45
2016-11-11T02:07:38.552Z,924.44
2016-11-11T02:07:55.274Z,924.44
2016-11-11T02:08:12.012Z,924.41
2016-11-11T02:08:28.736Z,924.45
2016-11-11T02:08:45.440Z,924.44
2016-11-11T02:09:02.209Z,924.43
2016-11-11T02:09:18.923Z,924.38
2016-11-11T02:09:35.649Z,924.37
2016-11-11T02:09:52.416Z,924.37
2016-11-11T02:10:09.155Z,924.38
2016-11-11T02:10:25.917Z,924.36
2016-11-11T02:10:42.647Z,924.37
2016-11-11T02:10:59.377Z,924.35
2016-11-11T02:11:16.079Z,924.38
2016-11-11T02:11:32.820Z,924.33
2016-11-11T02:11:49.555Z,924.3
2016-11-11T02:12:06.278Z,924.33
2016-11-11T02:12:23.003Z,924.29
2016-11-11T02:12:39.742Z,924.32
2016-11-11T02:12:56.484Z,924.31
2016-11-11T02:13:13.208Z,924.31
2016-11-11T02:13:30.538Z,924.28
2016-11-11T02:13:47.274Z,924.31
2016-11-11T02:14:04.059Z,924.31
2016-11-11T02:14:20.781Z,924.33
2016-11-11T02:14:37.500Z,924.35
2016-11-11T02:14:54.250Z,924.34
2016-11-11T02:15:10.995Z,924.35
2016-11-11T02:15:27.734Z,924.32
2016-11-11T02:15:44.449Z,924.34
2016-11-11T02:16:01.165Z,924.35
2016-11-11T02:16:17.888Z,924.37
2016-11-11T02:16:34.610Z,924.35
2016-11-11T02:16:51.344Z,924.32
2016-11-11T02:17:08.063Z,924.33
2016-11-11T02:17:39.265Z,924.35
2016-11-11T02:17:55.993Z,924.33
2016-11-11T02:18:12.816Z,924.38
2016-11-11T02:18:29.540Z,924.33
2016-11-11T02:18:46.282Z,924.35
2016-11-11T02:19:03.009Z,924.38
2016-11-11T02:19:19.724Z,924.41
2016-11-11T02:19:36.432Z,924.39
2016-11-11T02:19:53.172Z,924.44
2016-11-11T02:20:09.912Z,924.43
2016-11-11T02:20:26.641Z,924.41
2016-11-11T02:20:43.398Z,924.41
2016-11-11T02:21:00.956Z,924.45
2016-11-11T02:21:17.707Z,924.46
2016-11-11T02:21:34.441Z,924.41
2016-11-11T02:21:51.188Z,924.44
2016-11-11T02:22:07.920Z,924.46
2016-11-11T02:22:24.623Z,924.45
2016-11-11T02:22:41.323Z,924.46
2016-11-11T02:22:58.051Z,924.49
2016-11-11T02:23:14.796Z,924.44
2016-11-11T02:23:31.521Z,924.45
2016-11-11T02:23:48.243Z,924.44
2016-11-11T02:24:04.962Z,924.39
2016-11-11T02:24:21.650Z,924.4
2016-11-11T02:24:38.362Z,924.39
2016-11-11T02:24:55.072Z,924.37
2016-11-11T02:25:26.293Z,924.4
2016-11-11T02:25:43.024Z,924.35
2016-11-11T02:25:59.756Z,924.35
2016-11-11T02:26:17.002Z,924.35
2016-11-11T02:26:33.732Z,924.36
2016-11-11T02:26:50.475Z,924.34
2016-11-11T02:27:07.201Z,924.33
2016-11-11T02:27:23.928Z,924.32
2016-11-11T02:27:40.651Z,924.33
2016-11-11T02:27:57.402Z,924.31
2016-11-11T02:28:14.315Z,924.31
2016-11-11T02:28:31.023Z,924.31
2016-11-11T02:28:47.754Z,924.26
2016-11-11T02:29:04.465Z,924.26
2016-11-11T02:29:21.191Z,924.26
2016-11-11T02:29:37.925Z,924.27
2016-11-11T02:29:54.658Z,924.26
2016-11-11T02:30:11.434Z,924.29
2016-11-11T02:30:28.865Z,924.25
2016-11-11T02:30:45.573Z,924.26
2016-11-11T02:31:02.292Z,924.34
2016-11-11T02:31:19.018Z,924.26
2016-11-11T02:31:35.755Z,924.27
2016-11-11T02:31:52.497Z,924.27
2016-11-11T02:32:09.252Z,924.3
2016-11-11T02:32:25.991Z,924.31
2016-11-11T02:32:42.691Z,924.31
2016-11-11T02:32:59.444Z,924.29
2016-11-11T02:33:16.184Z,924.27
2016-11-11T02:33:32.930Z,924.27
2016-11-11T02:33:49.691Z,924.27
2016-11-11T02:34:07.466Z,924.26
2016-11-11T02:34:24.173Z,924.27
2016-11-11T02:34:40.892Z,924.28
2016-11-11T02:34:57.631Z,924.28
2016-11-11T02:35:28.857Z,924.33
2016-11-11T02:35:45.591Z,924.28
2016-11-11T02:36:02.305Z,924.29
2016-11-11T02:36:19.033Z,924.28
2016-11-11T02:36:35.777Z,924.27
2016-11-11T02:37:07.005Z,924.25
2016-11-11T02:37:23.751Z,924.25
2016-11-11T02:37:40.519Z,924.23
2016-11-11T02:37:57.239Z,924.25
2016-11-11T02:38:13.968Z,924.22
2016-11-11T02:38:30.700Z,924.23
2016-11-11T02:38:47.421Z,924.22
2016-11-11T02:39:04.640Z,924.15
2016-11-11T02:39:21.378Z,924.16
2016-11-11T02:39:38.139Z,924.18
2016-11-11T02:39:54.880Z,924.17
2016-11-11T02:40:11.600Z,924.18
2016-11-11T02:40:28.339Z,924.16
2016-11-11T02:40:45.055Z,924.16
2016-11-11T02:41:01.773Z,924.13
2016-11-11T02:41:18.507Z,924.12
2016-11-11T02:41:35.249Z,924.11
2016-11-11T02:41:51.965Z,924.11
2016-11-11T02:42:08.695Z,924.1
2016-11-11T02:42:25.426Z,924.11
2016-11-11T02:42:42.160Z,924.06
2016-11-11T02:42:58.868Z,924.07
2016-11-11T02:43:15.580Z,924.08
2016-11-11T02:43:32.832Z,924.05
2016-11-11T02:43:49.547Z,924.03
2016-11-11T02:44:06.274Z,924.03
2016-11-11T02:44:23.009Z,924.04
2016-11-11T02:44:39.733Z,924.03
2016-11-11T02:44:56.464Z,924
2016-11-11T02:45:13.200Z,924.01
2016-11-11T02:45:29.957Z,924.01
2016-11-11T02:45:46.695Z,924.02
2016-11-11T02:46:03.454Z,923.98
2016-11-11T02:46:20.184Z,924.01
2016-11-11T02:46:36.930Z,924.03
2016-11-11T02:46:53.693Z,924.01
2016-11-11T02:47:10.424Z,924.01
2016-11-11T02:47:27.119Z,923.98
2016-11-11T02:47:43.846Z,924
2016-11-11T02:48:00.691Z,923.99
2016-11-11T02:48:17.450Z,923.97
2016-11-11T02:48:34.171Z,923.95
2016-11-11T02:48:50.918Z,923.97
2016-11-11T02:49:07.646Z,923.95
2016-11-11T02:49:24.364Z,923.94
2016-11-11T02:49:55.619Z,923.93
2016-11-11T02:50:12.353Z,923.94
2016-11-11T02:50:29.093Z,923.87
2016-11-11T02:50:45.822Z,923.92
2016-11-11T02:51:02.527Z,923.87
2016-11-11T02:51:19.268Z,923.91
2016-11-11T02:51:36.049Z,923.89
2016-11-11T02:51:52.785Z,923.88
2016-11-11T02:52:09.506Z,923.88
2016-11-11T02:52:26.233Z,923.86
2016-11-11T02:52:42.971Z,923.85
2016-11-11T02:52:59.690Z,923.88
2016-11-11T02:53:16.413Z,923.84
2016-11-11T02:53:33.146Z,923.83
2016-11-11T02:53:49.925Z,923.83
2016-11-11T02:54:06.643Z,923.79
2016-11-11T02:54:23.373Z,923.82
2016-11-11T02:54:40.076Z,923.77
2016-11-11T02:54:56.791Z,923.79
2016-11-11T02:55:13.521Z,923.8
2016-11-11T02:55:30.272Z,923.8
2016-11-11T02:55:47.005Z,923.78
2016-11-11T02:56:03.730Z,923.78
2016-11-11T02:56:20.446Z,923.74
2016-11-11T02:56:37.747Z,923.73
2016-11-11T02:56:54.471Z,923.76
2016-11-11T02:57:11.205Z,923.72
2016-11-11T02:57:27.934Z,923.72
2016-11-11T02:57:44.658Z,923.73
2016-11-11T02:58:01.393Z,923.68
2016-11-11T02:58:18.621Z,923.7
2016-11-11T02:58:35.349Z,923.7
2016-11-11T02:58:52.115Z,923.7
2016-11-11T02:59:08.844Z,923.69
2016-11-11T02:59:25.568Z,923.71
2016-11-11T02:59:42.300Z,923.68
2016-11-11T02:59:59.039Z,923.69
2016-11-11T03:00:15.773Z,923.65
2016-11-11T03:00:33.996Z,923.66
2016-11-11T03:00:52.957Z,923.67
2016-11-11T03:01:10.169Z,923.65
2016-11-11T03:01:26.926Z,923.65
2016-11-11T03:01:43.658Z,923.61
2016-11-11T03:02:00.384Z,923.64
2016-11-11T03:02:17.646Z,923.63
2016-11-11T03:02:34.871Z,923.59
2016-11-11T03:02:51.610Z,923.61
2016-11-11T03:03:08.357Z,923.57
2016-11-11T03:03:25.095Z,923.59
2016-11-11T03:03:41.811Z,923.56
2016-11-11T03:03:58.586Z,923.61
2016-11-11T03:04:15.329Z,923.55
2016-11-11T03:04:32.064Z,923.55
2016-11-11T03:04:48.791Z,923.54
2016-11-11T03:05:05.503Z,923.53
2016-11-11T03:05:22.228Z,923.56
2016-11-11T03:05:38.957Z,923.54
2016-11-11T03:05:55.670Z,923.53
2016-11-11T03:06:12.379Z,923.53
2016-11-11T03:06:29.120Z,923.54
2016-11-11T03:06:45.882Z,923.51
2016-11-11T03:07:02.631Z,923.55
2016-11-11T03:07:19.369Z,923.57
2016-11-11T03:07:36.141Z,923.55
2016-11-11T03:07:52.876Z,923.53
2016-11-11T03:08:10.124Z,923.53
2016-11-11T03:08:26.852Z,923.54
2016-11-11T03:08:43.587Z,923.55
2016-11-11T03:09:14.820Z,923.57
2016-11-11T03:09:31.579Z,923.55
2016-11-11T03:09:48.278Z,923.48
2016-11-11T03:10:05.044Z,923.52
2016-11-11T03:10:21.789Z,923.48
2016-11-11T03:10:38.510Z,923.47
2016-11-11T03:10:55.260Z,923.5
2016-11-11T03:11:11.958Z,923.46
2016-11-11T03:11:28.669Z,923.48
2016-11-11T03:11:45.391Z,923.5
2016-11-11T03:12:02.127Z,923.51
2016-11-11T03:12:18.834Z,923.5
2016-11-11T03:12:35.544Z,923.51
2016-11-11T03:12:52.244Z,923.49
2016-11-11T03:13:08.992Z,923.46
2016-11-11T03:13:25.736Z,923.46
2016-11-11T03:13:42.465Z,923.45
2016-11-11T03:13:59.247Z,923.46
2016-11-11T03:14:16.478Z,923.48
2016-11-11T03:14:33.185Z,923.48
2016-11-11T03:14:50.430Z,923.47
2016-11-11T03:15:07.160Z,923.48
2016-11-11T03:15:24.109Z,923.49
2016-11-11T03:15:41.348Z,923.49
2016-11-11T03:15:58.083Z,923.5
2016-11-11T03:16:14.820Z,923.44
2016-11-11T03:16:31.524Z,923.47
2016-11-11T03:16:48.235Z,923.47
2016-11-11T03:17:04.982Z,923.5
2016-11-11T03:17:21.688Z,923.51
2016-11-11T03:17:38.408Z,923.48
2016-11-11T03:17:55.143Z,923.49
2016-11-11T03:18:11.874Z,923.47
2016-11-11T03:18:28.612Z,923.51
2016-11-11T03:18:45.309Z,923.5
2016-11-11T03:19:02.054Z,923.5
2016-11-11T03:19:18.752Z,923.5
2016-11-11T03:19:35.464Z,923.51
2016-11-11T03:19:52.179Z,923.51
2016-11-11T03:20:08.924Z,923.5
2016-11-11T03:20:25.655Z,923.51
2016-11-11T03:20:42.402Z,923.48
2016-11-11T03:20:59.129Z,923.46
2016-11-11T03:21:15.857Z,923.47
2016-11-11T03:21:32.583Z,923.47
2016-11-11T03:21:49.349Z,923.5
2016-11-11T03:22:06.037Z,923.52
2016-11-11T03:22:22.756Z,923.44
2016-11-11T03:22:39.481Z,923.48
2016-11-11T03:22:56.836Z,923.45
2016-11-11T03:23:13.550Z,923.44
2016-11-11T03:23:30.267Z,923.44
2016-11-11T03:23:46.964Z,923.45
2016-11-11T03:24:03.716Z,923.42
2016-11-11T03:24:20.967Z,923.4
2016-11-11T03:24:37.689Z,923.39
2016-11-11T03:24:54.419Z,923.4
2016-11-11T03:25:11.138Z,923.44
2016-11-11T03:25:27.853Z,923.41
2016-11-11T03:25:44.587Z,923.41
2016-11-11T03:26:01.344Z,923.4
2016-11-11T03:26:18.066Z,923.37
2016-11-11T03:26:34.790Z,923.35
2016-11-11T03:26:51.484Z,923.39
2016-11-11T03:27:08.236Z,923.42
2016-11-11T03:27:24.965Z,923.4
2016-11-11T03:27:41.659Z,923.4
2016-11-11T03:27:58.483Z,923.4
2016-11-11T03:28:15.226Z,923.43
2016-11-11T03:28:32.659Z,923.42
2016-11-11T03:28:49.379Z,923.41
2016-11-11T03:29:06.146Z,923.39
2016-11-11T03:29:22.917Z,923.42
2016-11-11T03:29:39.661Z,923.42
2016-11-11T03:29:56.376Z,923.45
2016-11-11T03:30:13.095Z,923.46
2016-11-11T03:30:29.799Z,923.42
2016-11-11T03:30:46.521Z,923.42
2016-11-11T03:31:03.293Z,923.42
2016-11-11T03:31:20.029Z,923.44
2016-11-11T03:31:36.770Z,923.49
2016-11-11T03:31:53.533Z,923.45
2016-11-11T03:32:10.456Z,923.43
2016-11-11T03:32:27.174Z,923.47
2016-11-11T03:32:43.931Z,923.45
2016-11-11T03:33:00.772Z,923.46
2016-11-11T03:33:17.510Z,923.45
2016-11-11T03:33:34.211Z,923.44
2016-11-11T03:33:50.911Z,923.47
2016-11-11T03:34:07.639Z,923.5